<?xml version="1.0" encoding="UTF-8" standalone="no" ?>
<gpx xmlns="http://www.topografix.com/GPX/1/1" xmlns:xsi="http://www.w3.org/2001/XMLSchema-instance" xsi:schemaLocation="http://www.topografix.com/GPX/1/1 http://www.topografix.com/GPX/1/1/gpx.xsd" version="1.1" creator="VisuGPX - https://www.visugpx.com">
  <metadata>
    <name>sarrat de caselin</name>
    <desc><![CDATA[tres belle rando à faire si possible sous un beau soleil et sans trop de plaque à vent pour le boucle]]></desc>
  </metadata>
  <trk>
    <name><![CDATA[Tracé actuel: 14 JAN 2015 09:15 001]]></name>
    <trkseg>
      <trkpt lat="42.7185" lon="1.93168">
        <ele>1303.69</ele>
        <time>2015-01-14T08:15:17Z</time>
      </trkpt>
      <trkpt lat="42.71849" lon="1.93175">
        <ele>1352.71</ele>
        <time>2015-01-14T08:26:37Z</time>
      </trkpt>
      <trkpt lat="42.71828" lon="1.93213">
        <ele>1350.79</ele>
        <time>2015-01-14T08:28:01Z</time>
      </trkpt>
      <trkpt lat="42.71804" lon="1.9326">
        <ele>1335.41</ele>
        <time>2015-01-14T08:29:14Z</time>
      </trkpt>
      <trkpt lat="42.71775" lon="1.93303">
        <ele>1335.41</ele>
        <time>2015-01-14T08:30:01Z</time>
      </trkpt>
      <trkpt lat="42.7174" lon="1.93348">
        <ele>1335.89</ele>
        <time>2015-01-14T08:30:42Z</time>
      </trkpt>
      <trkpt lat="42.71728" lon="1.93407">
        <ele>1339.25</ele>
        <time>2015-01-14T08:31:23Z</time>
      </trkpt>
      <trkpt lat="42.71724" lon="1.93468">
        <ele>1344.06</ele>
        <time>2015-01-14T08:32:09Z</time>
      </trkpt>
      <trkpt lat="42.71703" lon="1.93524">
        <ele>1346.94</ele>
        <time>2015-01-14T08:32:50Z</time>
      </trkpt>
      <trkpt lat="42.71676" lon="1.93574">
        <ele>1350.79</ele>
        <time>2015-01-14T08:33:31Z</time>
      </trkpt>
      <trkpt lat="42.7164" lon="1.93618">
        <ele>1355.6</ele>
        <time>2015-01-14T08:34:18Z</time>
      </trkpt>
      <trkpt lat="42.71619" lon="1.93671">
        <ele>1358.48</ele>
        <time>2015-01-14T08:35:00Z</time>
      </trkpt>
      <trkpt lat="42.71594" lon="1.93725">
        <ele>1361.36</ele>
        <time>2015-01-14T08:35:42Z</time>
      </trkpt>
      <trkpt lat="42.71562" lon="1.93775">
        <ele>1363.77</ele>
        <time>2015-01-14T08:36:28Z</time>
      </trkpt>
      <trkpt lat="42.71534" lon="1.93829">
        <ele>1364.73</ele>
        <time>2015-01-14T08:37:13Z</time>
      </trkpt>
      <trkpt lat="42.7151" lon="1.93884">
        <ele>1364.73</ele>
        <time>2015-01-14T08:37:51Z</time>
      </trkpt>
      <trkpt lat="42.71482" lon="1.93937">
        <ele>1367.13</ele>
        <time>2015-01-14T08:38:32Z</time>
      </trkpt>
      <trkpt lat="42.71464" lon="1.93993">
        <ele>1371.46</ele>
        <time>2015-01-14T08:39:17Z</time>
      </trkpt>
      <trkpt lat="42.71439" lon="1.94052">
        <ele>1375.78</ele>
        <time>2015-01-14T08:40:03Z</time>
      </trkpt>
      <trkpt lat="42.71405" lon="1.94096">
        <ele>1379.63</ele>
        <time>2015-01-14T08:40:50Z</time>
      </trkpt>
      <trkpt lat="42.71361" lon="1.94124">
        <ele>1383.47</ele>
        <time>2015-01-14T08:41:36Z</time>
      </trkpt>
      <trkpt lat="42.71322" lon="1.94163">
        <ele>1385.4</ele>
        <time>2015-01-14T08:42:18Z</time>
      </trkpt>
      <trkpt lat="42.7129" lon="1.94209">
        <ele>1385.4</ele>
        <time>2015-01-14T08:42:57Z</time>
      </trkpt>
      <trkpt lat="42.71255" lon="1.94247">
        <ele>1385.88</ele>
        <time>2015-01-14T08:43:41Z</time>
      </trkpt>
      <trkpt lat="42.71226" lon="1.94292">
        <ele>1388.76</ele>
        <time>2015-01-14T08:44:21Z</time>
      </trkpt>
      <trkpt lat="42.71201" lon="1.94343">
        <ele>1389.24</ele>
        <time>2015-01-14T08:45:04Z</time>
      </trkpt>
      <trkpt lat="42.71178" lon="1.94393">
        <ele>1393.09</ele>
        <time>2015-01-14T08:45:56Z</time>
      </trkpt>
      <trkpt lat="42.71149" lon="1.94442">
        <ele>1398.37</ele>
        <time>2015-01-14T08:46:45Z</time>
      </trkpt>
      <trkpt lat="42.71122" lon="1.94494">
        <ele>1405.58</ele>
        <time>2015-01-14T08:47:42Z</time>
      </trkpt>
      <trkpt lat="42.71088" lon="1.94537">
        <ele>1413.76</ele>
        <time>2015-01-14T08:48:47Z</time>
      </trkpt>
      <trkpt lat="42.71062" lon="1.94575">
        <ele>1419.52</ele>
        <time>2015-01-14T08:53:53Z</time>
      </trkpt>
      <trkpt lat="42.71023" lon="1.94625">
        <ele>1425.29</ele>
        <time>2015-01-14T08:55:06Z</time>
      </trkpt>
      <trkpt lat="42.70973" lon="1.9465">
        <ele>1428.66</ele>
        <time>2015-01-14T08:56:16Z</time>
      </trkpt>
      <trkpt lat="42.70938" lon="1.94685">
        <ele>1439.23</ele>
        <time>2015-01-14T08:57:25Z</time>
      </trkpt>
      <trkpt lat="42.70894" lon="1.94717">
        <ele>1447.4</ele>
        <time>2015-01-14T08:59:01Z</time>
      </trkpt>
      <trkpt lat="42.7086" lon="1.9475">
        <ele>1457.02</ele>
        <time>2015-01-14T09:00:55Z</time>
      </trkpt>
      <trkpt lat="42.70823" lon="1.94784">
        <ele>1461.82</ele>
        <time>2015-01-14T09:01:48Z</time>
      </trkpt>
      <trkpt lat="42.70786" lon="1.94818">
        <ele>1468.55</ele>
        <time>2015-01-14T09:02:43Z</time>
      </trkpt>
      <trkpt lat="42.70748" lon="1.9485">
        <ele>1474.32</ele>
        <time>2015-01-14T09:03:55Z</time>
      </trkpt>
      <trkpt lat="42.70706" lon="1.9489">
        <ele>1480.09</ele>
        <time>2015-01-14T09:05:05Z</time>
      </trkpt>
      <trkpt lat="42.70656" lon="1.94917">
        <ele>1486.34</ele>
        <time>2015-01-14T09:06:41Z</time>
      </trkpt>
      <trkpt lat="42.70635" lon="1.94966">
        <ele>1492.1</ele>
        <time>2015-01-14T09:07:55Z</time>
      </trkpt>
      <trkpt lat="42.70615" lon="1.9503">
        <ele>1500.27</ele>
        <time>2015-01-14T09:11:33Z</time>
      </trkpt>
      <trkpt lat="42.70608" lon="1.951">
        <ele>1510.85</ele>
        <time>2015-01-14T09:12:49Z</time>
      </trkpt>
      <trkpt lat="42.70576" lon="1.95155">
        <ele>1519.98</ele>
        <time>2015-01-14T09:14:16Z</time>
      </trkpt>
      <trkpt lat="42.70543" lon="1.95213">
        <ele>1531.52</ele>
        <time>2015-01-14T09:15:46Z</time>
      </trkpt>
      <trkpt lat="42.70498" lon="1.9524">
        <ele>1542.57</ele>
        <time>2015-01-14T09:17:23Z</time>
      </trkpt>
      <trkpt lat="42.70461" lon="1.95273">
        <ele>1552.67</ele>
        <time>2015-01-14T09:18:44Z</time>
      </trkpt>
      <trkpt lat="42.70422" lon="1.95301">
        <ele>1558.43</ele>
        <time>2015-01-14T09:20:43Z</time>
      </trkpt>
      <trkpt lat="42.70385" lon="1.95328">
        <ele>1564.68</ele>
        <time>2015-01-14T09:21:46Z</time>
      </trkpt>
      <trkpt lat="42.70341" lon="1.95365">
        <ele>1579.58</ele>
        <time>2015-01-14T09:23:42Z</time>
      </trkpt>
      <trkpt lat="42.703" lon="1.9539">
        <ele>1586.31</ele>
        <time>2015-01-14T09:24:54Z</time>
      </trkpt>
      <trkpt lat="42.70261" lon="1.95408">
        <ele>1592.56</ele>
        <time>2015-01-14T09:26:10Z</time>
      </trkpt>
      <trkpt lat="42.70218" lon="1.95438">
        <ele>1601.21</ele>
        <time>2015-01-14T09:30:50Z</time>
      </trkpt>
      <trkpt lat="42.70177" lon="1.95462">
        <ele>1608.42</ele>
        <time>2015-01-14T09:33:10Z</time>
      </trkpt>
      <trkpt lat="42.70135" lon="1.95466">
        <ele>1615.15</ele>
        <time>2015-01-14T09:34:18Z</time>
      </trkpt>
      <trkpt lat="42.70092" lon="1.95477">
        <ele>1624.77</ele>
        <time>2015-01-14T09:35:25Z</time>
      </trkpt>
      <trkpt lat="42.70065" lon="1.95513">
        <ele>1635.34</ele>
        <time>2015-01-14T09:36:48Z</time>
      </trkpt>
      <trkpt lat="42.70058" lon="1.95541">
        <ele>1640.15</ele>
        <time>2015-01-14T09:43:03Z</time>
      </trkpt>
      <trkpt lat="42.70024" lon="1.95582">
        <ele>1648.8</ele>
        <time>2015-01-14T09:44:02Z</time>
      </trkpt>
      <trkpt lat="42.69988" lon="1.9562">
        <ele>1654.57</ele>
        <time>2015-01-14T09:44:57Z</time>
      </trkpt>
      <trkpt lat="42.69959" lon="1.95666">
        <ele>1665.14</ele>
        <time>2015-01-14T09:46:09Z</time>
      </trkpt>
      <trkpt lat="42.69923" lon="1.95708">
        <ele>1677.64</ele>
        <time>2015-01-14T09:47:36Z</time>
      </trkpt>
      <trkpt lat="42.69882" lon="1.95734">
        <ele>1685.81</ele>
        <time>2015-01-14T09:48:49Z</time>
      </trkpt>
      <trkpt lat="42.6984" lon="1.95758">
        <ele>1695.42</ele>
        <time>2015-01-14T09:50:05Z</time>
      </trkpt>
      <trkpt lat="42.69799" lon="1.95784">
        <ele>1704.07</ele>
        <time>2015-01-14T09:51:18Z</time>
      </trkpt>
      <trkpt lat="42.69769" lon="1.95811">
        <ele>1712.73</ele>
        <time>2015-01-14T09:52:34Z</time>
      </trkpt>
      <trkpt lat="42.69764" lon="1.95863">
        <ele>1725.22</ele>
        <time>2015-01-14T09:54:20Z</time>
      </trkpt>
      <trkpt lat="42.69742" lon="1.95919">
        <ele>1734.36</ele>
        <time>2015-01-14T09:56:03Z</time>
      </trkpt>
      <trkpt lat="42.69722" lon="1.95958">
        <ele>1751.18</ele>
        <time>2015-01-14T09:58:32Z</time>
      </trkpt>
      <trkpt lat="42.69691" lon="1.95996">
        <ele>1764.16</ele>
        <time>2015-01-14T10:00:10Z</time>
      </trkpt>
      <trkpt lat="42.69663" lon="1.96012">
        <ele>1759.35</ele>
        <time>2015-01-14T10:05:09Z</time>
      </trkpt>
      <trkpt lat="42.69639" lon="1.96062">
        <ele>1768</ele>
        <time>2015-01-14T10:06:41Z</time>
      </trkpt>
      <trkpt lat="42.69612" lon="1.96112">
        <ele>1779.54</ele>
        <time>2015-01-14T10:08:17Z</time>
      </trkpt>
      <trkpt lat="42.69572" lon="1.96141">
        <ele>1793.48</ele>
        <time>2015-01-14T10:10:06Z</time>
      </trkpt>
      <trkpt lat="42.69537" lon="1.9616">
        <ele>1812.7</ele>
        <time>2015-01-14T10:12:34Z</time>
      </trkpt>
      <trkpt lat="42.69518" lon="1.96208">
        <ele>1834.33</ele>
        <time>2015-01-14T10:15:04Z</time>
      </trkpt>
      <trkpt lat="42.69489" lon="1.96254">
        <ele>1853.56</ele>
        <time>2015-01-14T10:17:24Z</time>
      </trkpt>
      <trkpt lat="42.69463" lon="1.96289">
        <ele>1867.98</ele>
        <time>2015-01-14T10:19:31Z</time>
      </trkpt>
      <trkpt lat="42.69434" lon="1.9632">
        <ele>1874.23</ele>
        <time>2015-01-14T10:21:04Z</time>
      </trkpt>
      <trkpt lat="42.69395" lon="1.96333">
        <ele>1884.8</ele>
        <time>2015-01-14T10:22:58Z</time>
      </trkpt>
      <trkpt lat="42.69353" lon="1.96343">
        <ele>1900.18</ele>
        <time>2015-01-14T10:24:50Z</time>
      </trkpt>
      <trkpt lat="42.6932" lon="1.96373">
        <ele>1911.24</ele>
        <time>2015-01-14T10:26:36Z</time>
      </trkpt>
      <trkpt lat="42.69282" lon="1.9638">
        <ele>1915.56</ele>
        <time>2015-01-14T10:28:42Z</time>
      </trkpt>
      <trkpt lat="42.69255" lon="1.96406">
        <ele>1916.04</ele>
        <time>2015-01-14T10:32:37Z</time>
      </trkpt>
      <trkpt lat="42.69227" lon="1.96446">
        <ele>1918.93</ele>
        <time>2015-01-14T10:35:30Z</time>
      </trkpt>
      <trkpt lat="42.69195" lon="1.96483">
        <ele>1924.22</ele>
        <time>2015-01-14T10:37:05Z</time>
      </trkpt>
      <trkpt lat="42.69162" lon="1.96521">
        <ele>1931.43</ele>
        <time>2015-01-14T10:38:09Z</time>
      </trkpt>
      <trkpt lat="42.69123" lon="1.96547">
        <ele>1940.56</ele>
        <time>2015-01-14T10:39:34Z</time>
      </trkpt>
      <trkpt lat="42.69091" lon="1.96573">
        <ele>1953.06</ele>
        <time>2015-01-14T10:41:17Z</time>
      </trkpt>
      <trkpt lat="42.69065" lon="1.96616">
        <ele>1965.07</ele>
        <time>2015-01-14T10:43:08Z</time>
      </trkpt>
      <trkpt lat="42.69032" lon="1.96652">
        <ele>1974.2</ele>
        <time>2015-01-14T10:44:36Z</time>
      </trkpt>
      <trkpt lat="42.68995" lon="1.96687">
        <ele>1980.45</ele>
        <time>2015-01-14T10:45:41Z</time>
      </trkpt>
      <trkpt lat="42.68955" lon="1.96696">
        <ele>1993.91</ele>
        <time>2015-01-14T10:47:57Z</time>
      </trkpt>
      <trkpt lat="42.68926" lon="1.96726">
        <ele>2008.81</ele>
        <time>2015-01-14T10:50:11Z</time>
      </trkpt>
      <trkpt lat="42.68891" lon="1.96754">
        <ele>2021.79</ele>
        <time>2015-01-14T10:52:08Z</time>
      </trkpt>
      <trkpt lat="42.68864" lon="1.96791">
        <ele>2033.33</ele>
        <time>2015-01-14T10:54:19Z</time>
      </trkpt>
      <trkpt lat="42.6883" lon="1.96823">
        <ele>2042.94</ele>
        <time>2015-01-14T10:56:15Z</time>
      </trkpt>
      <trkpt lat="42.688" lon="1.9685">
        <ele>2056.88</ele>
        <time>2015-01-14T10:59:38Z</time>
      </trkpt>
      <trkpt lat="42.68773" lon="1.96892">
        <ele>2070.82</ele>
        <time>2015-01-14T11:02:21Z</time>
      </trkpt>
      <trkpt lat="42.68742" lon="1.96934">
        <ele>2083.79</ele>
        <time>2015-01-14T11:04:42Z</time>
      </trkpt>
      <trkpt lat="42.68708" lon="1.96959">
        <ele>2092.45</ele>
        <time>2015-01-14T11:06:27Z</time>
      </trkpt>
      <trkpt lat="42.6872" lon="1.96985">
        <ele>2097.25</ele>
        <time>2015-01-14T11:13:25Z</time>
      </trkpt>
      <trkpt lat="42.6873" lon="1.97028">
        <ele>2114.08</ele>
        <time>2015-01-14T11:15:55Z</time>
      </trkpt>
      <trkpt lat="42.6874" lon="1.97072">
        <ele>2125.13</ele>
        <time>2015-01-14T11:18:09Z</time>
      </trkpt>
      <trkpt lat="42.68739" lon="1.97089">
        <ele>2126.09</ele>
        <time>2015-01-14T11:19:09Z</time>
      </trkpt>
      <trkpt lat="42.6874" lon="1.97069">
        <ele>2119.84</ele>
        <time>2015-01-14T12:19:41Z</time>
      </trkpt>
      <trkpt lat="42.68727" lon="1.97041">
        <ele>2113.6</ele>
        <time>2015-01-14T12:23:20Z</time>
      </trkpt>
      <trkpt lat="42.6872" lon="1.96983">
        <ele>2094.37</ele>
        <time>2015-01-14T12:24:52Z</time>
      </trkpt>
      <trkpt lat="42.6871" lon="1.9693">
        <ele>2085.24</ele>
        <time>2015-01-14T12:26:37Z</time>
      </trkpt>
      <trkpt lat="42.6872" lon="1.96877">
        <ele>2084.76</ele>
        <time>2015-01-14T12:27:39Z</time>
      </trkpt>
      <trkpt lat="42.68724" lon="1.96819">
        <ele>2085.72</ele>
        <time>2015-01-14T12:28:38Z</time>
      </trkpt>
      <trkpt lat="42.68744" lon="1.96765">
        <ele>2084.28</ele>
        <time>2015-01-14T12:29:49Z</time>
      </trkpt>
      <trkpt lat="42.68754" lon="1.96719">
        <ele>2088.6</ele>
        <time>2015-01-14T12:32:20Z</time>
      </trkpt>
      <trkpt lat="42.68769" lon="1.96673">
        <ele>2095.33</ele>
        <time>2015-01-14T12:34:03Z</time>
      </trkpt>
      <trkpt lat="42.68778" lon="1.96652">
        <ele>2093.89</ele>
        <time>2015-01-14T12:37:41Z</time>
      </trkpt>
      <trkpt lat="42.68789" lon="1.96606">
        <ele>2084.28</ele>
        <time>2015-01-14T12:39:48Z</time>
      </trkpt>
      <trkpt lat="42.68805" lon="1.96552">
        <ele>2086.68</ele>
        <time>2015-01-14T12:41:33Z</time>
      </trkpt>
      <trkpt lat="42.68791" lon="1.96499">
        <ele>2078.99</ele>
        <time>2015-01-14T12:42:57Z</time>
      </trkpt>
      <trkpt lat="42.68778" lon="1.96444">
        <ele>2078.99</ele>
        <time>2015-01-14T12:44:13Z</time>
      </trkpt>
      <trkpt lat="42.68779" lon="1.96389">
        <ele>2073.22</ele>
        <time>2015-01-14T12:45:42Z</time>
      </trkpt>
      <trkpt lat="42.68787" lon="1.96328">
        <ele>2064.09</ele>
        <time>2015-01-14T12:46:40Z</time>
      </trkpt>
      <trkpt lat="42.68806" lon="1.96274">
        <ele>2061.68</ele>
        <time>2015-01-14T12:47:30Z</time>
      </trkpt>
      <trkpt lat="42.68825" lon="1.96221">
        <ele>2063.61</ele>
        <time>2015-01-14T12:48:30Z</time>
      </trkpt>
      <trkpt lat="42.6886" lon="1.96183">
        <ele>2069.86</ele>
        <time>2015-01-14T12:49:53Z</time>
      </trkpt>
      <trkpt lat="42.68896" lon="1.96148">
        <ele>2073.7</ele>
        <time>2015-01-14T12:51:10Z</time>
      </trkpt>
      <trkpt lat="42.68927" lon="1.9611">
        <ele>2071.78</ele>
        <time>2015-01-14T12:53:03Z</time>
      </trkpt>
      <trkpt lat="42.68937" lon="1.96054">
        <ele>2060.72</ele>
        <time>2015-01-14T12:54:02Z</time>
      </trkpt>
      <trkpt lat="42.68955" lon="1.96">
        <ele>2057.36</ele>
        <time>2015-01-14T12:54:57Z</time>
      </trkpt>
      <trkpt lat="42.68973" lon="1.95949">
        <ele>2058.32</ele>
        <time>2015-01-14T12:56:40Z</time>
      </trkpt>
      <trkpt lat="42.68999" lon="1.95904">
        <ele>2053.03</ele>
        <time>2015-01-14T12:58:31Z</time>
      </trkpt>
      <trkpt lat="42.69031" lon="1.95869">
        <ele>2053.03</ele>
        <time>2015-01-14T12:59:54Z</time>
      </trkpt>
      <trkpt lat="42.69057" lon="1.95836">
        <ele>2053.99</ele>
        <time>2015-01-14T13:02:36Z</time>
      </trkpt>
      <trkpt lat="42.69062" lon="1.95779">
        <ele>2039.09</ele>
        <time>2015-01-14T13:03:47Z</time>
      </trkpt>
      <trkpt lat="42.69075" lon="1.95721">
        <ele>2027.08</ele>
        <time>2015-01-14T13:04:49Z</time>
      </trkpt>
      <trkpt lat="42.69086" lon="1.9566">
        <ele>2015.06</ele>
        <time>2015-01-14T13:06:01Z</time>
      </trkpt>
      <trkpt lat="42.69095" lon="1.95604">
        <ele>2002.56</ele>
        <time>2015-01-14T13:07:24Z</time>
      </trkpt>
      <trkpt lat="42.69098" lon="1.95552">
        <ele>1988.62</ele>
        <time>2015-01-14T13:09:59Z</time>
      </trkpt>
      <trkpt lat="42.6913" lon="1.95543">
        <ele>1980.45</ele>
        <time>2015-01-14T13:12:45Z</time>
      </trkpt>
      <trkpt lat="42.69174" lon="1.95532">
        <ele>1968.44</ele>
        <time>2015-01-14T13:13:39Z</time>
      </trkpt>
      <trkpt lat="42.69211" lon="1.95569">
        <ele>1949.21</ele>
        <time>2015-01-14T13:14:53Z</time>
      </trkpt>
      <trkpt lat="42.69234" lon="1.95623">
        <ele>1935.27</ele>
        <time>2015-01-14T13:15:52Z</time>
      </trkpt>
      <trkpt lat="42.6926" lon="1.95658">
        <ele>1917.97</ele>
        <time>2015-01-14T13:17:14Z</time>
      </trkpt>
      <trkpt lat="42.69303" lon="1.95657">
        <ele>1893.45</ele>
        <time>2015-01-14T13:18:58Z</time>
      </trkpt>
      <trkpt lat="42.69347" lon="1.95679">
        <ele>1874.71</ele>
        <time>2015-01-14T13:20:05Z</time>
      </trkpt>
      <trkpt lat="42.69385" lon="1.95708">
        <ele>1863.65</ele>
        <time>2015-01-14T13:21:01Z</time>
      </trkpt>
      <trkpt lat="42.69421" lon="1.95735">
        <ele>1852.12</ele>
        <time>2015-01-14T13:23:39Z</time>
      </trkpt>
      <trkpt lat="42.69456" lon="1.95711">
        <ele>1841.06</ele>
        <time>2015-01-14T13:25:34Z</time>
      </trkpt>
      <trkpt lat="42.69493" lon="1.9572">
        <ele>1819.43</ele>
        <time>2015-01-14T13:27:14Z</time>
      </trkpt>
      <trkpt lat="42.69508" lon="1.95768">
        <ele>1803.09</ele>
        <time>2015-01-14T13:28:36Z</time>
      </trkpt>
      <trkpt lat="42.69535" lon="1.95813">
        <ele>1781.46</ele>
        <time>2015-01-14T13:29:49Z</time>
      </trkpt>
      <trkpt lat="42.69574" lon="1.95827">
        <ele>1763.68</ele>
        <time>2015-01-14T13:30:57Z</time>
      </trkpt>
      <trkpt lat="42.69612" lon="1.9584">
        <ele>1754.54</ele>
        <time>2015-01-14T13:33:06Z</time>
      </trkpt>
      <trkpt lat="42.69656" lon="1.95858">
        <ele>1738.68</ele>
        <time>2015-01-14T13:34:20Z</time>
      </trkpt>
      <trkpt lat="42.69686" lon="1.95893">
        <ele>1725.7</ele>
        <time>2015-01-14T13:36:19Z</time>
      </trkpt>
      <trkpt lat="42.69716" lon="1.9589">
        <ele>1718.01</ele>
        <time>2015-01-14T13:38:23Z</time>
      </trkpt>
      <trkpt lat="42.69754" lon="1.95859">
        <ele>1712.73</ele>
        <time>2015-01-14T13:39:44Z</time>
      </trkpt>
      <trkpt lat="42.69778" lon="1.95809">
        <ele>1704.07</ele>
        <time>2015-01-14T13:41:03Z</time>
      </trkpt>
      <trkpt lat="42.69808" lon="1.95769">
        <ele>1691.58</ele>
        <time>2015-01-14T13:42:24Z</time>
      </trkpt>
      <trkpt lat="42.69851" lon="1.95741">
        <ele>1682.44</ele>
        <time>2015-01-14T13:43:46Z</time>
      </trkpt>
      <trkpt lat="42.69892" lon="1.9572">
        <ele>1674.27</ele>
        <time>2015-01-14T13:44:42Z</time>
      </trkpt>
      <trkpt lat="42.69929" lon="1.95682">
        <ele>1662.26</ele>
        <time>2015-01-14T13:45:45Z</time>
      </trkpt>
      <trkpt lat="42.69964" lon="1.95647">
        <ele>1653.12</ele>
        <time>2015-01-14T13:46:41Z</time>
      </trkpt>
      <trkpt lat="42.69996" lon="1.95604">
        <ele>1643.51</ele>
        <time>2015-01-14T13:47:32Z</time>
      </trkpt>
      <trkpt lat="42.70031" lon="1.95568">
        <ele>1638.22</ele>
        <time>2015-01-14T13:48:18Z</time>
      </trkpt>
      <trkpt lat="42.70061" lon="1.95527">
        <ele>1629.09</ele>
        <time>2015-01-14T13:49:15Z</time>
      </trkpt>
      <trkpt lat="42.70074" lon="1.95483">
        <ele>1619.96</ele>
        <time>2015-01-14T13:51:06Z</time>
      </trkpt>
      <trkpt lat="42.70117" lon="1.95462">
        <ele>1609.38</ele>
        <time>2015-01-14T13:52:02Z</time>
      </trkpt>
      <trkpt lat="42.70161" lon="1.95454">
        <ele>1601.21</ele>
        <time>2015-01-14T13:52:49Z</time>
      </trkpt>
      <trkpt lat="42.70205" lon="1.95435">
        <ele>1593.04</ele>
        <time>2015-01-14T13:53:54Z</time>
      </trkpt>
      <trkpt lat="42.70234" lon="1.95398">
        <ele>1580.54</ele>
        <time>2015-01-14T13:55:27Z</time>
      </trkpt>
      <trkpt lat="42.7028" lon="1.95392">
        <ele>1581.51</ele>
        <time>2015-01-14T13:56:49Z</time>
      </trkpt>
      <trkpt lat="42.70309" lon="1.95362">
        <ele>1572.37</ele>
        <time>2015-01-14T13:57:50Z</time>
      </trkpt>
      <trkpt lat="42.70349" lon="1.95348">
        <ele>1567.09</ele>
        <time>2015-01-14T13:59:58Z</time>
      </trkpt>
      <trkpt lat="42.70384" lon="1.95324">
        <ele>1556.51</ele>
        <time>2015-01-14T14:01:19Z</time>
      </trkpt>
      <trkpt lat="42.70425" lon="1.95297">
        <ele>1549.78</ele>
        <time>2015-01-14T14:02:15Z</time>
      </trkpt>
      <trkpt lat="42.7046" lon="1.95262">
        <ele>1543.53</ele>
        <time>2015-01-14T14:03:49Z</time>
      </trkpt>
      <trkpt lat="42.70502" lon="1.95225">
        <ele>1531.52</ele>
        <time>2015-01-14T14:04:53Z</time>
      </trkpt>
      <trkpt lat="42.70549" lon="1.95195">
        <ele>1520.94</ele>
        <time>2015-01-14T14:06:07Z</time>
      </trkpt>
      <trkpt lat="42.70578" lon="1.95141">
        <ele>1511.33</ele>
        <time>2015-01-14T14:07:02Z</time>
      </trkpt>
      <trkpt lat="42.70598" lon="1.95088">
        <ele>1502.68</ele>
        <time>2015-01-14T14:09:49Z</time>
      </trkpt>
      <trkpt lat="42.70615" lon="1.95017">
        <ele>1493.06</ele>
        <time>2015-01-14T14:10:47Z</time>
      </trkpt>
      <trkpt lat="42.70633" lon="1.94949">
        <ele>1487.3</ele>
        <time>2015-01-14T14:11:39Z</time>
      </trkpt>
      <trkpt lat="42.7067" lon="1.94897">
        <ele>1479.61</ele>
        <time>2015-01-14T14:12:44Z</time>
      </trkpt>
      <trkpt lat="42.70718" lon="1.94869">
        <ele>1475.28</ele>
        <time>2015-01-14T14:14:12Z</time>
      </trkpt>
      <trkpt lat="42.70757" lon="1.94834">
        <ele>1471.44</ele>
        <time>2015-01-14T14:15:06Z</time>
      </trkpt>
      <trkpt lat="42.70798" lon="1.94798">
        <ele>1465.19</ele>
        <time>2015-01-14T14:15:52Z</time>
      </trkpt>
      <trkpt lat="42.70837" lon="1.94766">
        <ele>1458.94</ele>
        <time>2015-01-14T14:16:36Z</time>
      </trkpt>
      <trkpt lat="42.70877" lon="1.94735">
        <ele>1454.13</ele>
        <time>2015-01-14T14:17:18Z</time>
      </trkpt>
      <trkpt lat="42.70894" lon="1.94716">
        <ele>1447.4</ele>
        <time>2015-01-14T14:21:04Z</time>
      </trkpt>
      <trkpt lat="42.70925" lon="1.94689">
        <ele>1441.15</ele>
        <time>2015-01-14T14:24:12Z</time>
      </trkpt>
      <trkpt lat="42.70968" lon="1.94652">
        <ele>1430.1</ele>
        <time>2015-01-14T14:25:10Z</time>
      </trkpt>
      <trkpt lat="42.71001" lon="1.9461">
        <ele>1421.93</ele>
        <time>2015-01-14T14:25:50Z</time>
      </trkpt>
      <trkpt lat="42.7103" lon="1.94569">
        <ele>1414.24</ele>
        <time>2015-01-14T14:26:53Z</time>
      </trkpt>
      <trkpt lat="42.71065" lon="1.94543">
        <ele>1415.2</ele>
        <time>2015-01-14T14:28:45Z</time>
      </trkpt>
      <trkpt lat="42.71101" lon="1.94511">
        <ele>1411.83</ele>
        <time>2015-01-14T14:29:37Z</time>
      </trkpt>
      <trkpt lat="42.71132" lon="1.9447">
        <ele>1402.22</ele>
        <time>2015-01-14T14:31:09Z</time>
      </trkpt>
      <trkpt lat="42.7116" lon="1.94426">
        <ele>1397.41</ele>
        <time>2015-01-14T14:31:56Z</time>
      </trkpt>
      <trkpt lat="42.71188" lon="1.94378">
        <ele>1392.61</ele>
        <time>2015-01-14T14:33:30Z</time>
      </trkpt>
      <trkpt lat="42.71211" lon="1.94327">
        <ele>1389.24</ele>
        <time>2015-01-14T14:34:34Z</time>
      </trkpt>
      <trkpt lat="42.71235" lon="1.94274">
        <ele>1387.8</ele>
        <time>2015-01-14T14:35:18Z</time>
      </trkpt>
      <trkpt lat="42.71272" lon="1.94241">
        <ele>1385.88</ele>
        <time>2015-01-14T14:36:17Z</time>
      </trkpt>
      <trkpt lat="42.71301" lon="1.94193">
        <ele>1385.88</ele>
        <time>2015-01-14T14:37:04Z</time>
      </trkpt>
      <trkpt lat="42.71335" lon="1.94148">
        <ele>1385.4</ele>
        <time>2015-01-14T14:37:55Z</time>
      </trkpt>
      <trkpt lat="42.71372" lon="1.9411">
        <ele>1382.51</ele>
        <time>2015-01-14T14:38:38Z</time>
      </trkpt>
      <trkpt lat="42.71414" lon="1.94082">
        <ele>1379.15</ele>
        <time>2015-01-14T14:39:22Z</time>
      </trkpt>
      <trkpt lat="42.71445" lon="1.94037">
        <ele>1375.3</ele>
        <time>2015-01-14T14:40:05Z</time>
      </trkpt>
      <trkpt lat="42.71465" lon="1.93981">
        <ele>1370.5</ele>
        <time>2015-01-14T14:40:49Z</time>
      </trkpt>
      <trkpt lat="42.71487" lon="1.93925">
        <ele>1366.65</ele>
        <time>2015-01-14T14:41:32Z</time>
      </trkpt>
      <trkpt lat="42.71512" lon="1.93876">
        <ele>1364.73</ele>
        <time>2015-01-14T14:42:15Z</time>
      </trkpt>
      <trkpt lat="42.71535" lon="1.93821">
        <ele>1364.25</ele>
        <time>2015-01-14T14:42:59Z</time>
      </trkpt>
      <trkpt lat="42.71561" lon="1.93769">
        <ele>1363.77</ele>
        <time>2015-01-14T14:43:43Z</time>
      </trkpt>
      <trkpt lat="42.71593" lon="1.93722">
        <ele>1361.36</ele>
        <time>2015-01-14T14:44:30Z</time>
      </trkpt>
      <trkpt lat="42.71618" lon="1.9367">
        <ele>1358.48</ele>
        <time>2015-01-14T14:46:59Z</time>
      </trkpt>
      <trkpt lat="42.7164" lon="1.93615">
        <ele>1355.6</ele>
        <time>2015-01-14T14:47:42Z</time>
      </trkpt>
      <trkpt lat="42.71673" lon="1.93568">
        <ele>1350.79</ele>
        <time>2015-01-14T14:48:24Z</time>
      </trkpt>
      <trkpt lat="42.71701" lon="1.93519">
        <ele>1347.43</ele>
        <time>2015-01-14T14:49:05Z</time>
      </trkpt>
      <trkpt lat="42.71722" lon="1.93466">
        <ele>1344.54</ele>
        <time>2015-01-14T14:49:45Z</time>
      </trkpt>
      <trkpt lat="42.71727" lon="1.93407">
        <ele>1339.25</ele>
        <time>2015-01-14T14:50:27Z</time>
      </trkpt>
      <trkpt lat="42.71737" lon="1.93345">
        <ele>1335.89</ele>
        <time>2015-01-14T14:51:09Z</time>
      </trkpt>
      <trkpt lat="42.71773" lon="1.93299">
        <ele>1334.93</ele>
        <time>2015-01-14T14:51:53Z</time>
      </trkpt>
      <trkpt lat="42.718" lon="1.93259">
        <ele>1334.93</ele>
        <time>2015-01-14T14:52:40Z</time>
      </trkpt>
      <trkpt lat="42.71827" lon="1.93214">
        <ele>1349.83</ele>
        <time>2015-01-14T14:54:01Z</time>
      </trkpt>
      <trkpt lat="42.71852" lon="1.93171">
        <ele>1352.71</ele>
        <time>2015-01-14T14:55:06Z</time>
      </trkpt>
    </trkseg>
  </trk>
</gpx>